HTDK1: Little Arkansas River At Hwy 50 Nr Halstead, KS

Data processed at Sun Apr 30 2017 22:41


All information presented herein is the property of the government of the United States of America and may be revised or deleted at any time without prior notice.
Dissemination of this information without the expressed written consent of the Public Affairs Office, Tulsa District U.S. Army Corps of Engineers is strictly prohibited.
These data are gathered electronically and, as presented, have not undergone any form of quality control. These data are not guaranteed to be valid or correct.
Go to home page.
Go to station list.
Go to station map.

Upstream stations:

Downstream station:
Previous Day
Next Day
Current Day
    
SHEF ID:       HTDK1     L ARKANSAS R AT HWY 50 NR HALSTE
STATION TYPE:  

               PRECIP     STAGE  RIV-FLOW  BAT-LOAD
                   in        ft       cfs      volt
              Ccp-Rev   Ccp-Rev   Ccp-Rev   Ccp-Rev
(US/Central)
04/30 00:00      0.00      7.12       141     12.83
04/30 01:00      0.01      7.11       138     12.83
04/30 02:00      0.00      7.11       138     12.83
04/30 03:00      0.01      7.12       141     12.83
04/30 04:00      0.01      7.13       142     12.77
04/30 05:00      0.13      7.16       146     12.54
04/30 06:00      0.00      7.22       155     12.83
04/30 07:00      0.01      7.28       164     12.83
04/30 08:00      0.01      7.34       173     12.83
04/30 09:00      0.00      7.40       182     12.95
04/30 10:00      0.00      7.47       194     13.18
04/30 11:00      0.00      7.56       208     13.65
04/30 12:00      0.00      7.62       218     13.94
04/30 13:00      0.09      7.68       228     14.06
04/30 14:00      0.02      7.76       242     14.18
04/30 15:00      0.00      7.81       251     14.35
04/30 16:00      0.00      7.86       261     14.12
04/30 17:00      0.00      7.93       273     14.24
04/30 18:00      0.00      8.01       288     14.06
04/30 19:00      0.02      8.09       303     13.83
04/30 20:00      0.04      8.20       325     13.30
04/30 21:00      0.01      8.31       348     12.83
04/30 22:00      0.00      8.41       368     13.07
04/30 23:00      ----      ----      ----      ----